Sea Imp Xi — CFFC — position and weather

sailwx.info

Track history (hours):
 
Tides and Currents Weather Stations Pressure Air Temp Water Temp Dewpoint Dewpoint Depression Visibility Wind Speed Wind Dir Waves Ship Positions

Sea Imp Xi

Last reported at 2017-Dec-11 17:00 UTC. Time now 2017-Dec-13 14:54 UTC.
Position N 49°09' W 122°59'.

Length 16 m; draft 3.6 m.

Type: Tug. MMSI: 316034963.

Date/timePositionNaut miles runAvg speedWind from/ knotsBaromVisibWave heightAir tempDewpointWater temp
2017-Dec-11 17:00N 49°09' W 122°59'0 0.1
2017-Dec-11 16:30N 49°09' W 122°59'0 0.1
2017-Dec-11 16:00N 49°09' W 122°59'0 0.1
2017-Dec-11 15:30N 49°09' W 122°59'0 0.1
2017-Dec-11 15:00N 49°09' W 122°59'2 3.1
2017-Dec-11 14:29N 49°10' W 122°56'2 3.8
2017-Dec-11 14:00N 49°11' W 122°57'3 5.4
2017-Dec-11 13:30N 49°12' W 123°02'2 0.1
2017-Dec-10 12:18N 49°12' W 123°04'0 0.0
2017-Dec-10 12:00N 49°12' W 123°04'0 0.0
2017-Dec-10 11:30N 49°12' W 123°04'0 0.0
2017-Dec-10 11:00N 49°12' W 123°04'0 0.2
2017-Dec-10 10:30N 49°12' W 123°04'3 6.5
2017-Dec-10 10:00N 49°11' W 122°59'4 8.2
2017-Dec-10 09:30N 49°13' W 122°54'3 5.1
2017-Dec-10 09:00N 49°13' W 122°50'1 1.8
2017-Dec-10 08:30N 49°13' W 122°51'2 4.8
2017-Dec-10 08:00N 49°12' W 122°54'3 5.3
2017-Dec-10 07:29N 49°10' W 122°57'1 1.3
2017-Dec-10 07:00N 49°09' W 122°57'2 3.7
2017-Dec-10 06:30N 49°11' W 122°58'4 7.1
2017-Dec-10 06:00N 49°12' W 123°03'1 1.3
2017-Dec-10 05:30N 49°12' W 123°04'0 0.2
2017-Dec-10 05:00N 49°12' W 123°04'0 0.0
2017-Dec-10 04:30N 49°12' W 123°04'2 4.9
2017-Dec-10 04:01N 49°12' W 123°08'3 6.5
2017-Dec-10 03:30N 49°13' W 123°12'4 7.6
2017-Dec-10 03:00N 49°16' W 123°17'4 7.0
2017-Dec-10 02:30N 49°17' W 123°22'4 8.4
2017-Dec-10 02:00N 49°18' W 123°28'4 8.6
2017-Dec-10 01:30N 49°20' W 123°34'4 8.6
2017-Dec-10 01:00N 49°22' W 123°40'5 8.2
2017-Dec-10 00:26N 49°23' W 123°47'9 8.0
2017-Dec-09 23:16N 49°27' W 123°60'3 8.2
2017-Dec-09 22:53N 49°29' W 124°04'4 8.4
2017-Dec-09 22:26N 49°32' W 124°07'4 8.7
2017-Dec-09 22:00N 49°35' W 124°11'4 8.7
2017-Dec-09 21:30N 49°38' W 124°16'4 8.1
2017-Dec-09 21:00N 49°41' W 124°20'4 7.7
2017-Dec-09 20:30N 49°44' W 124°24'4 7.8
2017-Dec-09 20:00N 49°46' W 124°29'4 7.3
2017-Dec-09 19:30N 49°49' W 124°33'3 6.6
2017-Dec-09 19:01N 49°52' W 124°33'0 0.2
2017-Dec-09 18:30N 49°52' W 124°33'0 0.0
2017-Dec-09 18:00N 49°52' W 124°33'0 0.0
2017-Dec-09 17:30N 49°52' W 124°33'0 0.0
2017-Dec-09 17:00N 49°52' W 124°33'0 0.0
2017-Dec-09 16:29N 49°52' W 124°33'0 0.0
2017-Dec-09 15:54N 49°52' W 124°33'0 0.0
2017-Dec-09 15:18N 49°52' W 124°33'0 0.0
2017-Dec-09 14:55N 49°52' W 124°33'0 0.0
2017-Dec-09 14:30N 49°52' W 124°33'0 0.0
2017-Dec-09 14:00N 49°52' W 124°33'1 1.5
2017-Dec-09 13:30N 49°51' W 124°33'3 6.8
2017-Dec-09 13:00N 49°48' W 124°32'4 7.8
2017-Dec-09 12:30N 49°46' W 124°27'4 8.1
2017-Dec-09 12:00N 49°43' W 124°22'4 8.0
2017-Dec-09 11:30N 49°41' W 124°18'4 7.8
2017-Dec-09 11:00N 49°38' W 124°14'4 7.7
2017-Dec-09 10:30N 49°35' W 124°10'4 7.7
2017-Dec-09 10:00N 49°31' W 124°07'5 7.6
2017-Dec-09 09:21N 49°28' W 124°01'8 7.8
2017-Dec-09 08:21N 49°25' W 123°51'3 8.0
2017-Dec-09 07:56N 49°23' W 123°46'3 7.3
2017-Dec-09 07:30N 49°22' W 123°41'4 7.2
2017-Dec-09 07:00N 49°21' W 123°36'4 7.2
2017-Dec-09 06:30N 49°19' W 123°31'3 6.9
2017-Dec-09 06:00N 49°18' W 123°26'4 7.1
2017-Dec-09 05:30N 49°17' W 123°21'3 6.8
2017-Dec-09 05:00N 49°15' W 123°16'3 6.3
2017-Dec-09 04:30N 49°13' W 123°13'3 6.7
2017-Dec-09 04:00N 49°12' W 123°08'3 5.2
2017-Dec-09 03:31N 49°12' W 123°04'0 0.2
2017-Dec-09 03:00N 49°12' W 123°04'0 0.1
2017-Dec-09 02:30N 49°12' W 123°04'0 0.1
2017-Dec-09 02:00N 49°12' W 123°04'0 0.0
2017-Dec-09 01:30N 49°12' W 123°04'3 5.8
2017-Dec-09 01:00N 49°11' W 122°60'2 3.0
2017-Dec-09 00:18N 49°12' W 122°57'1 1.9
2017-Dec-09 00:00N 49°11' W 122°57'0 0.1
2017-Dec-08 23:30N 49°11' W 122°57'0 0.3
2017-Dec-08 23:00N 49°11' W 122°58'1 2.6
2017-Dec-08 22:30N 49°11' W 122°60'3 5.7
2017-Dec-08 22:00N 49°12' W 123°04'3 5.4
2017-Dec-08 21:31N 49°12' W 123°08'3 5.2
2017-Dec-08 21:00N 49°13' W 123°11'1 2.6
2017-Dec-08 20:30N 49°14' W 123°13'2 4.1
2017-Dec-08 20:00N 49°15' W 123°16'3 5.8
2017-Dec-08 19:30N 49°18' W 123°15'4 8.2
2017-Dec-08 19:00N 49°19' W 123°09'4 8.3
2017-Dec-08 18:31N 49°18' W 123°03'3 6.3
2017-Dec-08 17:58N 49°17' W 122°57'1 1.8
2017-Dec-08 17:30N 49°18' W 122°58'1 1.4
2017-Dec-08 17:00N 49°18' W 122°57'1 1.3
2017-Dec-08 16:27N 49°18' W 122°58'0 0.1
2017-Dec-08 16:00N 49°18' W 122°58'0 0.3
2017-Dec-08 15:28N 49°18' W 122°58'1 2.0
2017-Dec-08 15:00N 49°18' W 122°60'3 6.3
2017-Dec-08 14:30N 49°18' W 123°04'3 5.6
2017-Dec-08 14:00N 49°19' W 123°08'2 3.5
2017-Dec-08 13:30N 49°19' W 123°11'1 2.5
2017-Dec-08 13:00N 49°19' W 123°13'2 3.4
2017-Dec-08 12:31N 49°18' W 123°15'2 3.2
2017-Dec-08 12:00N 49°17' W 123°17'2 3.3
2017-Dec-08 11:30N 49°15' W 123°17'2 3.0
2017-Dec-08 11:00N 49°14' W 123°18'2 3.2
2017-Dec-08 10:30N 49°12' W 123°18'2 3.2
2017-Dec-08 10:00N 49°11' W 123°18'2 3.2
2017-Dec-08 09:30N 49°09' W 123°19'2 2.8
2017-Dec-08 08:42N 49°07' W 123°19'0 2.5
2017-Dec-08 08:31N 49°06' W 123°19'3 6.2
2017-Dec-08 08:00N 49°08' W 123°15'4 7.4
2017-Dec-08 07:30N 49°07' W 123°09'4 7.2
2017-Dec-08 07:00N 49°08' W 123°04'3 6.3
2017-Dec-08 06:31N 49°09' W 123°00'1 1.8
2017-Dec-08 05:59N 49°09' W 122°59'0 0.1
2017-Dec-08 05:06N 49°09' W 122°59'0 0.6
2017-Dec-08 04:58N 49°09' W 122°59'0 0.0
2017-Dec-08 04:28N 49°09' W 122°59'1 2.6
2017-Dec-08 04:00N 49°09' W 122°57'2 4.3
2017-Dec-08 03:28N 49°12' W 122°57'3 5.4
2017-Dec-08 03:00N 49°12' W 123°01'2 4.2
2017-Dec-08 02:29N 49°12' W 123°04'0 0.0
2017-Dec-08 01:59N 49°12' W 123°04'0 0.0
2017-Dec-06 23:00N 49°12' W 123°04'2 4.5
2017-Dec-06 22:30N 49°12' W 123°00'3 6.9
2017-Dec-06 22:00N 49°11' W 122°55'4 7.3
2017-Dec-06 21:29N 49°09' W 123°00'2 4.3
2017-Dec-06 21:00N 49°08' W 123°03'  
2017-Dec-04 10:30N 49°12' W 123°04'0 0.1
2017-Dec-04 10:00N 49°12' W 123°04'0 0.0
2017-Dec-04 09:30N 49°12' W 123°04'0 0.0
2017-Dec-04 09:00N 49°12' W 123°04'0 0.0
2017-Dec-04 08:30N 49°12' W 123°04'2 4.8
2017-Dec-04 08:00N 49°12' W 123°00'4 7.7
2017-Dec-04 07:28N 49°12' W 122°54'511.2
2017-Dec-04 06:59N 49°13' W 122°46'4 9.1
2017-Dec-04 06:30N 49°12' W 122°40'0 0.0
2017-Dec-04 05:58N 49°12' W 122°40'0 0.0
2017-Dec-04 05:28N 49°12' W 122°40'0 0.3
2017-Dec-04 05:00N 49°12' W 122°40'0 0.1
2017-Dec-04 04:30N 49°12' W 122°40'0 0.3
2017-Dec-04 04:00N 49°12' W 122°40'1 1.5
2017-Dec-04 03:27N 49°12' W 122°41'2 4.1
2017-Dec-04 02:59N 49°13' W 122°44'2 4.1
2017-Dec-04 02:29N 49°14' W 122°46'2 5.0
2017-Dec-04 02:00N 49°16' W 122°43'2 4.4
2017-Dec-04 01:30N 49°17' W 122°41'2 2.7
2017-Dec-04 00:50N 49°19' W 122°40'1 3.7
2017-Dec-04 00:30N 49°18' W 122°40'4 8.6
2017-Dec-04 00:00N 49°15' W 122°44'5 9.5
2017-Dec-03 23:30N 49°13' W 122°51'4 7.1
2017-Dec-03 23:00N 49°11' W 122°56'1 1.7
2017-Dec-03 22:30N 49°12' W 122°57'3 6.4
2017-Dec-03 22:00N 49°12' W 123°02'4 7.8
2017-Dec-03 21:30N 49°12' W 123°08'1 2.9
2017-Dec-03 21:01N 49°12' W 123°05'1 2.9
2017-Dec-03 20:30N 49°12' W 123°03'2 3.8
2017-Dec-03 20:00N 49°12' W 123°00'2 3.1
2017-Dec-03 19:29N 49°11' W 122°58'2 3.6
2017-Dec-03 18:58N 49°12' W 122°56'1 2.9
2017-Dec-03 18:28N 49°12' W 122°54'1 3.0
2017-Dec-03 18:00N 49°13' W 122°52'2 3.4
2017-Dec-03 17:27N 49°13' W 122°49'2 4.0
2017-Dec-03 17:00N 49°13' W 122°46'2 3.2
2017-Dec-03 16:30N 49°13' W 122°44'2 3.7
2017-Dec-03 15:58N 49°15' W 122°44'3 6.1
2017-Dec-03 15:30N 49°17' W 122°42'2 3.7
2017-Dec-03 14:54N 49°19' W 122°40'0 0.1
2017-Dec-03 14:28N 49°19' W 122°40'2 4.7
2017-Dec-03 14:00N 49°17' W 122°42'5 8.6
2017-Dec-03 13:23N 49°13' W 122°48'4 9.6
2017-Dec-03 13:00N 49°13' W 122°53'4 8.5
2017-Dec-03 12:30N 49°09' W 122°57'4 8.7
2017-Dec-03 12:00N 49°08' W 123°04'4 8.7
2017-Dec-03 11:30N 49°07' W 123°10'4 7.8
2017-Dec-03 11:00N 49°07' W 123°16'2 4.4
2017-Dec-03 10:30N 49°07' W 123°19'4 8.9
2017-Dec-03 10:01N 49°11' W 123°18'4 7.9
2017-Dec-03 09:31N 49°15' W 123°18'1 2.7
2017-Dec-03 09:00N 49°15' W 123°16'4 7.1
2017-Dec-03 08:31N 49°13' W 123°11'4 8.6
2017-Dec-03 08:01N 49°12' W 123°05'5 9.2
2017-Dec-03 07:30N 49°11' W 122°57'1 1.2
2017-Dec-03 07:00N 49°12' W 122°57'0 0.2
2017-Dec-03 06:30N 49°12' W 122°57'1 1.8
2017-Dec-03 06:00N 49°12' W 122°55'1 0.8
2017-Dec-03 04:59N 49°12' W 122°57'0 0.1
2017-Dec-03 04:29N 49°12' W 122°57'0 0.0
2017-Dec-03 03:59N 49°12' W 122°57'1 1.7
2017-Dec-03 03:30N 49°12' W 122°55'1 1.2
2017-Dec-03 02:51N 49°12' W 122°57'0 0.0
2017-Dec-03 02:30N 49°12' W 122°57'0 0.1
2017-Dec-03 00:01N 49°12' W 122°57'0 0.2
2017-Dec-02 23:59N 49°12' W 122°57'0 0.3
2017-Dec-02 23:30N 49°12' W 122°57'0 0.0
2017-Dec-02 22:24N 49°12' W 122°57'2 5.5
2017-Dec-02 22:00N 49°11' W 122°60'1 1.8
2017-Dec-02 21:30N 49°12' W 123°01'3 5.8
2017-Dec-02 21:00N 49°12' W 123°05'1 2.2
2017-Dec-02 20:30N 49°12' W 123°04'0 0.0
2017-Dec-02 20:00N 49°12' W 123°04'0 0.1
2017-Dec-02 19:30N 49°12' W 123°04'2 4.1
2017-Dec-02 19:00N 49°12' W 123°07'3 6.6
2017-Dec-02 18:30N 49°13' W 123°12'4 7.2
2017-Dec-02 18:01N 49°15' W 123°16'4 7.5
2017-Dec-02 17:30N 49°17' W 123°21'3 6.8
2017-Dec-02 17:00N 49°19' W 123°25'3 6.8
2017-Dec-02 16:30N 49°23' W 123°26'4 7.1
2017-Dec-02 15:59N 49°26' W 123°27'4 7.6
2017-Dec-02 15:31N 49°30' W 123°29'1 1.7
2017-Dec-02 15:00N 49°30' W 123°30'0 0.0
2017-Dec-02 14:28N 49°30' W 123°30'0 0.0
2017-Dec-02 13:52N 49°30' W 123°30'0 0.1
2017-Dec-02 13:28N 49°30' W 123°30'0 0.1
2017-Dec-02 13:01N 49°30' W 123°30'1 1.6
2017-Dec-02 12:31N 49°30' W 123°29'4 8.5
2017-Dec-02 12:01N 49°26' W 123°27'4 7.3
2017-Dec-02 11:29N 49°22' W 123°26'4 7.9
2017-Dec-02 11:00N 49°19' W 123°23'4 8.5
2017-Dec-02 10:30N 49°16' W 123°18'3 5.8
2017-Dec-02 10:01N 49°14' W 123°15'4 7.2
2017-Dec-02 09:30N 49°13' W 123°10'3 6.7
2017-Dec-02 09:00N 49°12' W 123°05'1 1.0
2017-Dec-02 08:30N 49°12' W 123°04'0 0.0
2017-Dec-02 08:00N 49°12' W 123°04'0 0.0
2017-Dec-02 07:30N 49°12' W 123°04'0 0.0
2017-Dec-02 07:00N 49°12' W 123°04'0 0.0
2017-Dec-02 06:30N 49°12' W 123°04'0 0.0
2017-Dec-02 06:00N 49°12' W 123°04'0 0.0
2017-Dec-02 05:30N 49°12' W 123°04'0 0.0
2017-Dec-02 05:00N 49°12' W 123°04'0 0.0
2017-Dec-02 04:30N 49°12' W 123°04'0 0.0
2017-Dec-02 04:00N 49°12' W 123°04'0 0.0
2017-Dec-02 03:30N 49°12' W 123°04'3 5.6
2017-Dec-02 03:00N 49°12' W 123°08'3 7.0
2017-Dec-02 02:31N 49°13' W 123°13'3 6.8
2017-Dec-02 02:00N 49°15' W 123°18'5 9.8
2017-Dec-02 01:30N 49°10' W 123°19'510.2
2017-Dec-02 01:00N 49°06' W 123°22'5 9.6
2017-Dec-02 00:30N 49°01' W 123°19'510.1
2017-Dec-02 00:01N 48°56' W 123°18'5 9.1
2017-Dec-01 23:30N 48°52' W 123°19'3 6.7
2017-Dec-01 23:00N 48°48' W 123°21'5 9.7
2017-Dec-01 22:30N 48°44' W 123°21'510.2
2017-Dec-01 22:00N 48°39' W 123°21'510.3
2017-Dec-01 21:31N 48°34' W 123°18'5 9.9
2017-Dec-01 21:01N 48°29' W 123°16'4 8.6
2017-Dec-01 20:31N 48°25' W 123°17'3 6.5
2017-Dec-01 20:01N 48°24' W 123°22'1 1.1
2017-Dec-01 19:31N 48°24' W 123°22'3 6.0
2017-Dec-01 19:01N 48°23' W 123°18'4 7.2
2017-Dec-01 18:31N 48°27' W 123°16'3 5.7
2017-Dec-01 18:01N 48°29' W 123°15'3 7.0
2017-Dec-01 17:31N 48°33' W 123°18'4 8.0
2017-Dec-01 17:01N 48°36' W 123°20'  
Track history (hours):
 
Tides and Currents Weather Stations Pressure Air Temp Water Temp Dewpoint Dewpoint Depression Visibility Wind Speed Wind Dir Waves Ship Positions

Sea Imp Xi

Last reported at 2017-Dec-11 17:00 UTC. Time now 2017-Dec-13 14:54 UTC.
Position N 49°09' W 122°59'.

Length 16 m; draft 3.6 m.

Type: Tug. MMSI: 316034963.

Date/timePositionNaut miles runAvg speedWind from/ knotsBaromVisibWave heightAir tempDewpointWater temp
2017-Dec-11 17:00N 49°09' W 122°59'0 0.1
2017-Dec-11 16:30N 49°09' W 122°59'0 0.1
2017-Dec-11 16:00N 49°09' W 122°59'0 0.1
2017-Dec-11 15:30N 49°09' W 122°59'0 0.1
2017-Dec-11 15:00N 49°09' W 122°59'2 3.1
2017-Dec-11 14:29N 49°10' W 122°56'2 3.8
2017-Dec-11 14:00N 49°11' W 122°57'3 5.4
2017-Dec-11 13:30N 49°12' W 123°02'2 0.1
2017-Dec-10 12:18N 49°12' W 123°04'0 0.0
2017-Dec-10 12:00N 49°12' W 123°04'0 0.0
2017-Dec-10 11:30N 49°12' W 123°04'0 0.0
2017-Dec-10 11:00N 49°12' W 123°04'0 0.2
2017-Dec-10 10:30N 49°12' W 123°04'3 6.5
2017-Dec-10 10:00N 49°11' W 122°59'4 8.2
2017-Dec-10 09:30N 49°13' W 122°54'3 5.1
2017-Dec-10 09:00N 49°13' W 122°50'1 1.8
2017-Dec-10 08:30N 49°13' W 122°51'2 4.8
2017-Dec-10 08:00N 49°12' W 122°54'3 5.3
2017-Dec-10 07:29N 49°10' W 122°57'1 1.3
2017-Dec-10 07:00N 49°09' W 122°57'2 3.7
2017-Dec-10 06:30N 49°11' W 122°58'4 7.1
2017-Dec-10 06:00N 49°12' W 123°03'1 1.3
2017-Dec-10 05:30N 49°12' W 123°04'0 0.2
2017-Dec-10 05:00N 49°12' W 123°04'0 0.0
2017-Dec-10 04:30N 49°12' W 123°04'2 4.9
2017-Dec-10 04:01N 49°12' W 123°08'3 6.5
2017-Dec-10 03:30N 49°13' W 123°12'4 7.6
2017-Dec-10 03:00N 49°16' W 123°17'4 7.0
2017-Dec-10 02:30N 49°17' W 123°22'4 8.4
2017-Dec-10 02:00N 49°18' W 123°28'4 8.6
2017-Dec-10 01:30N 49°20' W 123°34'4 8.6
2017-Dec-10 01:00N 49°22' W 123°40'5 8.2
2017-Dec-10 00:26N 49°23' W 123°47'9 8.0
2017-Dec-09 23:16N 49°27' W 123°60'3 8.2
2017-Dec-09 22:53N 49°29' W 124°04'4 8.4
2017-Dec-09 22:26N 49°32' W 124°07'4 8.7
2017-Dec-09 22:00N 49°35' W 124°11'4 8.7
2017-Dec-09 21:30N 49°38' W 124°16'4 8.1
2017-Dec-09 21:00N 49°41' W 124°20'4 7.7
2017-Dec-09 20:30N 49°44' W 124°24'4 7.8
2017-Dec-09 20:00N 49°46' W 124°29'4 7.3
2017-Dec-09 19:30N 49°49' W 124°33'3 6.6
2017-Dec-09 19:01N 49°52' W 124°33'0 0.2
2017-Dec-09 18:30N 49°52' W 124°33'0 0.0
2017-Dec-09 18:00N 49°52' W 124°33'0 0.0
2017-Dec-09 17:30N 49°52' W 124°33'0 0.0
2017-Dec-09 17:00N 49°52' W 124°33'0 0.0
2017-Dec-09 16:29N 49°52' W 124°33'0 0.0
2017-Dec-09 15:54N 49°52' W 124°33'0 0.0
2017-Dec-09 15:18N 49°52' W 124°33'0 0.0
2017-Dec-09 14:55N 49°52' W 124°33'0 0.0
2017-Dec-09 14:30N 49°52' W 124°33'0 0.0
2017-Dec-09 14:00N 49°52' W 124°33'1 1.5
2017-Dec-09 13:30N 49°51' W 124°33'3 6.8
2017-Dec-09 13:00N 49°48' W 124°32'4 7.8
2017-Dec-09 12:30N 49°46' W 124°27'4 8.1
2017-Dec-09 12:00N 49°43' W 124°22'4 8.0
2017-Dec-09 11:30N 49°41' W 124°18'4 7.8
2017-Dec-09 11:00N 49°38' W 124°14'4 7.7
2017-Dec-09 10:30N 49°35' W 124°10'4 7.7
2017-Dec-09 10:00N 49°31' W 124°07'5 7.6
2017-Dec-09 09:21N 49°28' W 124°01'8 7.8
2017-Dec-09 08:21N 49°25' W 123°51'3 8.0
2017-Dec-09 07:56N 49°23' W 123°46'3 7.3
2017-Dec-09 07:30N 49°22' W 123°41'4 7.2
2017-Dec-09 07:00N 49°21' W 123°36'4 7.2
2017-Dec-09 06:30N 49°19' W 123°31'3 6.9
2017-Dec-09 06:00N 49°18' W 123°26'4 7.1
2017-Dec-09 05:30N 49°17' W 123°21'3 6.8
2017-Dec-09 05:00N 49°15' W 123°16'3 6.3
2017-Dec-09 04:30N 49°13' W 123°13'3 6.7
2017-Dec-09 04:00N 49°12' W 123°08'3 5.2
2017-Dec-09 03:31N 49°12' W 123°04'0 0.2
2017-Dec-09 03:00N 49°12' W 123°04'0 0.1
2017-Dec-09 02:30N 49°12' W 123°04'0 0.1
2017-Dec-09 02:00N 49°12' W 123°04'0 0.0
2017-Dec-09 01:30N 49°12' W 123°04'3 5.8
2017-Dec-09 01:00N 49°11' W 122°60'2 3.0
2017-Dec-09 00:18N 49°12' W 122°57'1 1.9
2017-Dec-09 00:00N 49°11' W 122°57'0 0.1
2017-Dec-08 23:30N 49°11' W 122°57'0 0.3
2017-Dec-08 23:00N 49°11' W 122°58'1 2.6
2017-Dec-08 22:30N 49°11' W 122°60'3 5.7
2017-Dec-08 22:00N 49°12' W 123°04'3 5.4
2017-Dec-08 21:31N 49°12' W 123°08'3 5.2
2017-Dec-08 21:00N 49°13' W 123°11'1 2.6
2017-Dec-08 20:30N 49°14' W 123°13'2 4.1
2017-Dec-08 20:00N 49°15' W 123°16'3 5.8
2017-Dec-08 19:30N 49°18' W 123°15'4 8.2
2017-Dec-08 19:00N 49°19' W 123°09'4 8.3
2017-Dec-08 18:31N 49°18' W 123°03'3 6.3
2017-Dec-08 17:58N 49°17' W 122°57'1 1.8
2017-Dec-08 17:30N 49°18' W 122°58'1 1.4
2017-Dec-08 17:00N 49°18' W 122°57'1 1.3
2017-Dec-08 16:27N 49°18' W 122°58'0 0.1
2017-Dec-08 16:00N 49°18' W 122°58'0 0.3
2017-Dec-08 15:28N 49°18' W 122°58'1 2.0
2017-Dec-08 15:00N 49°18' W 122°60'3 6.3
2017-Dec-08 14:30N 49°18' W 123°04'3 5.6
2017-Dec-08 14:00N 49°19' W 123°08'2 3.5
2017-Dec-08 13:30N 49°19' W 123°11'1 2.5
2017-Dec-08 13:00N 49°19' W 123°13'2 3.4
2017-Dec-08 12:31N 49°18' W 123°15'2 3.2
2017-Dec-08 12:00N 49°17' W 123°17'2 3.3
2017-Dec-08 11:30N 49°15' W 123°17'2 3.0
2017-Dec-08 11:00N 49°14' W 123°18'2 3.2
2017-Dec-08 10:30N 49°12' W 123°18'2 3.2
2017-Dec-08 10:00N 49°11' W 123°18'2 3.2
2017-Dec-08 09:30N 49°09' W 123°19'2 2.8
2017-Dec-08 08:42N 49°07' W 123°19'0 2.5
2017-Dec-08 08:31N 49°06' W 123°19'3 6.2
2017-Dec-08 08:00N 49°08' W 123°15'4 7.4
2017-Dec-08 07:30N 49°07' W 123°09'4 7.2
2017-Dec-08 07:00N 49°08' W 123°04'3 6.3
2017-Dec-08 06:31N 49°09' W 123°00'1 1.8
2017-Dec-08 05:59N 49°09' W 122°59'0 0.1
2017-Dec-08 05:06N 49°09' W 122°59'0 0.6
2017-Dec-08 04:58N 49°09' W 122°59'0 0.0
2017-Dec-08 04:28N 49°09' W 122°59'1 2.6
2017-Dec-08 04:00N 49°09' W 122°57'2 4.3
2017-Dec-08 03:28N 49°12' W 122°57'3 5.4
2017-Dec-08 03:00N 49°12' W 123°01'2 4.2
2017-Dec-08 02:29N 49°12' W 123°04'0 0.0
2017-Dec-08 01:59N 49°12' W 123°04'0 0.0
2017-Dec-06 23:00N 49°12' W 123°04'2 4.5
2017-Dec-06 22:30N 49°12' W 123°00'3 6.9
2017-Dec-06 22:00N 49°11' W 122°55'4 7.3
2017-Dec-06 21:29N 49°09' W 123°00'2 4.3
2017-Dec-06 21:00N 49°08' W 123°03'  
2017-Dec-04 10:30N 49°12' W 123°04'0 0.1
2017-Dec-04 10:00N 49°12' W 123°04'0 0.0
2017-Dec-04 09:30N 49°12' W 123°04'0 0.0
2017-Dec-04 09:00N 49°12' W 123°04'0 0.0
2017-Dec-04 08:30N 49°12' W 123°04'2 4.8
2017-Dec-04 08:00N 49°12' W 123°00'4 7.7
2017-Dec-04 07:28N 49°12' W 122°54'511.2
2017-Dec-04 06:59N 49°13' W 122°46'4 9.1
2017-Dec-04 06:30N 49°12' W 122°40'0 0.0
2017-Dec-04 05:58N 49°12' W 122°40'0 0.0
2017-Dec-04 05:28N 49°12' W 122°40'0 0.3
2017-Dec-04 05:00N 49°12' W 122°40'0 0.1
2017-Dec-04 04:30N 49°12' W 122°40'0 0.3
2017-Dec-04 04:00N 49°12' W 122°40'1 1.5
2017-Dec-04 03:27N 49°12' W 122°41'2 4.1
2017-Dec-04 02:59N 49°13' W 122°44'2 4.1
2017-Dec-04 02:29N 49°14' W 122°46'2 5.0
2017-Dec-04 02:00N 49°16' W 122°43'2 4.4
2017-Dec-04 01:30N 49°17' W 122°41'2 2.7
2017-Dec-04 00:50N 49°19' W 122°40'1 3.7
2017-Dec-04 00:30N 49°18' W 122°40'4 8.6
2017-Dec-04 00:00N 49°15' W 122°44'5 9.5
2017-Dec-03 23:30N 49°13' W 122°51'4 7.1
2017-Dec-03 23:00N 49°11' W 122°56'1 1.7
2017-Dec-03 22:30N 49°12' W 122°57'3 6.4
2017-Dec-03 22:00N 49°12' W 123°02'4 7.8
2017-Dec-03 21:30N 49°12' W 123°08'1 2.9
2017-Dec-03 21:01N 49°12' W 123°05'1 2.9
2017-Dec-03 20:30N 49°12' W 123°03'2 3.8
2017-Dec-03 20:00N 49°12' W 123°00'2 3.1
2017-Dec-03 19:29N 49°11' W 122°58'2 3.6
2017-Dec-03 18:58N 49°12' W 122°56'1 2.9
2017-Dec-03 18:28N 49°12' W 122°54'1 3.0
2017-Dec-03 18:00N 49°13' W 122°52'2 3.4
2017-Dec-03 17:27N 49°13' W 122°49'2 4.0
2017-Dec-03 17:00N 49°13' W 122°46'2 3.2
2017-Dec-03 16:30N 49°13' W 122°44'2 3.7
2017-Dec-03 15:58N 49°15' W 122°44'3 6.1
2017-Dec-03 15:30N 49°17' W 122°42'2 3.7
2017-Dec-03 14:54N 49°19' W 122°40'0 0.1
2017-Dec-03 14:28N 49°19' W 122°40'2 4.7
2017-Dec-03 14:00N 49°17' W 122°42'5 8.6
2017-Dec-03 13:23N 49°13' W 122°48'4 9.6
2017-Dec-03 13:00N 49°13' W 122°53'4 8.5
2017-Dec-03 12:30N 49°09' W 122°57'4 8.7
2017-Dec-03 12:00N 49°08' W 123°04'4 8.7
2017-Dec-03 11:30N 49°07' W 123°10'4 7.8
2017-Dec-03 11:00N 49°07' W 123°16'2 4.4
2017-Dec-03 10:30N 49°07' W 123°19'4 8.9
2017-Dec-03 10:01N 49°11' W 123°18'4 7.9
2017-Dec-03 09:31N 49°15' W 123°18'1 2.7
2017-Dec-03 09:00N 49°15' W 123°16'4 7.1
2017-Dec-03 08:31N 49°13' W 123°11'4 8.6
2017-Dec-03 08:01N 49°12' W 123°05'5 9.2
2017-Dec-03 07:30N 49°11' W 122°57'1 1.2
2017-Dec-03 07:00N 49°12' W 122°57'0 0.2
2017-Dec-03 06:30N 49°12' W 122°57'1 1.8
2017-Dec-03 06:00N 49°12' W 122°55'1 0.8
2017-Dec-03 04:59N 49°12' W 122°57'0 0.1
2017-Dec-03 04:29N 49°12' W 122°57'0 0.0
2017-Dec-03 03:59N 49°12' W 122°57'1 1.7
2017-Dec-03 03:30N 49°12' W 122°55'1 1.2
2017-Dec-03 02:51N 49°12' W 122°57'0 0.0
2017-Dec-03 02:30N 49°12' W 122°57'0 0.1
2017-Dec-03 00:01N 49°12' W 122°57'0 0.2
2017-Dec-02 23:59N 49°12' W 122°57'0 0.3
2017-Dec-02 23:30N 49°12' W 122°57'0 0.0
2017-Dec-02 22:24N 49°12' W 122°57'2 5.5
2017-Dec-02 22:00N 49°11' W 122°60'1 1.8
2017-Dec-02 21:30N 49°12' W 123°01'3 5.8
2017-Dec-02 21:00N 49°12' W 123°05'1 2.2
2017-Dec-02 20:30N 49°12' W 123°04'0 0.0
2017-Dec-02 20:00N 49°12' W 123°04'0 0.1
2017-Dec-02 19:30N 49°12' W 123°04'2 4.1
2017-Dec-02 19:00N 49°12' W 123°07'3 6.6
2017-Dec-02 18:30N 49°13' W 123°12'4 7.2
2017-Dec-02 18:01N 49°15' W 123°16'4 7.5
2017-Dec-02 17:30N 49°17' W 123°21'3 6.8
2017-Dec-02 17:00N 49°19' W 123°25'3 6.8
2017-Dec-02 16:30N 49°23' W 123°26'4 7.1
2017-Dec-02 15:59N 49°26' W 123°27'4 7.6
2017-Dec-02 15:31N 49°30' W 123°29'1 1.7
2017-Dec-02 15:00N 49°30' W 123°30'0 0.0
2017-Dec-02 14:28N 49°30' W 123°30'0 0.0
2017-Dec-02 13:52N 49°30' W 123°30'0 0.1
2017-Dec-02 13:28N 49°30' W 123°30'0 0.1
2017-Dec-02 13:01N 49°30' W 123°30'1 1.6
2017-Dec-02 12:31N 49°30' W 123°29'4 8.5
2017-Dec-02 12:01N 49°26' W 123°27'4 7.3
2017-Dec-02 11:29N 49°22' W 123°26'4 7.9
2017-Dec-02 11:00N 49°19' W 123°23'4 8.5
2017-Dec-02 10:30N 49°16' W 123°18'3 5.8
2017-Dec-02 10:01N 49°14' W 123°15'4 7.2
2017-Dec-02 09:30N 49°13' W 123°10'3 6.7
2017-Dec-02 09:00N 49°12' W 123°05'1 1.0
2017-Dec-02 08:30N 49°12' W 123°04'0 0.0
2017-Dec-02 08:00N 49°12' W 123°04'0 0.0
2017-Dec-02 07:30N 49°12' W 123°04'0 0.0
2017-Dec-02 07:00N 49°12' W 123°04'0 0.0
2017-Dec-02 06:30N 49°12' W 123°04'0 0.0
2017-Dec-02 06:00N 49°12' W 123°04'0 0.0
2017-Dec-02 05:30N 49°12' W 123°04'0 0.0
2017-Dec-02 05:00N 49°12' W 123°04'0 0.0
2017-Dec-02 04:30N 49°12' W 123°04'0 0.0
2017-Dec-02 04:00N 49°12' W 123°04'0 0.0
2017-Dec-02 03:30N 49°12' W 123°04'3 5.6
2017-Dec-02 03:00N 49°12' W 123°08'3 7.0
2017-Dec-02 02:31N 49°13' W 123°13'3 6.8
2017-Dec-02 02:00N 49°15' W 123°18'5 9.8
2017-Dec-02 01:30N 49°10' W 123°19'510.2
2017-Dec-02 01:00N 49°06' W 123°22'5 9.6
2017-Dec-02 00:30N 49°01' W 123°19'510.1
2017-Dec-02 00:01N 48°56' W 123°18'5 9.1
2017-Dec-01 23:30N 48°52' W 123°19'3 6.7
2017-Dec-01 23:00N 48°48' W 123°21'5 9.7
2017-Dec-01 22:30N 48°44' W 123°21'510.2
2017-Dec-01 22:00N 48°39' W 123°21'510.3
2017-Dec-01 21:31N 48°34' W 123°18'5 9.9
2017-Dec-01 21:01N 48°29' W 123°16'4 8.6
2017-Dec-01 20:31N 48°25' W 123°17'3 6.5
2017-Dec-01 20:01N 48°24' W 123°22'1 1.1
2017-Dec-01 19:31N 48°24' W 123°22'3 6.0
2017-Dec-01 19:01N 48°23' W 123°18'4 7.2
2017-Dec-01 18:31N 48°27' W 123°16'3 5.7
2017-Dec-01 18:01N 48°29' W 123°15'3 7.0
2017-Dec-01 17:31N 48°33' W 123°18'4 8.0
2017-Dec-01 17:01N 48°36' W 123°20'  

Dump ship's entire track history